createdAt,value
2017-10-21T00:01:22.691Z,6.20
2017-10-21T00:03:50.967Z,6.00
2017-10-21T00:06:19.267Z,5.80
2017-10-21T00:08:47.558Z,5.40
2017-10-21T00:11:15.896Z,6.17
2017-10-21T00:13:44.269Z,3.87
2017-10-21T00:16:13.329Z,4.43
2017-10-21T00:18:41.635Z,5.43
2017-10-21T00:21:09.954Z,4.30
2017-10-21T00:23:38.271Z,5.83
2017-10-21T00:26:06.578Z,4.07
2017-10-21T00:28:35.659Z,4.60
2017-10-21T00:31:04.766Z,5.23
2017-10-21T00:33:33.056Z,5.17
2017-10-21T00:36:02.104Z,4.90
2017-10-21T00:38:30.432Z,3.87
2017-10-21T00:40:58.743Z,9.27
2017-10-21T00:43:27.076Z,4.03
2017-10-21T00:45:55.375Z,5.23
2017-10-21T00:48:23.667Z,3.83
2017-10-21T00:50:51.986Z,4.53
2017-10-21T00:53:20.298Z,4.30
2017-10-21T00:55:48.611Z,5.10
2017-10-21T00:58:16.915Z,6.63
2017-10-21T01:00:46.011Z,5.17
2017-10-21T01:03:14.286Z,4.90
2017-10-21T01:05:43.376Z,8.63
2017-10-21T01:08:11.655Z,7.53
2017-10-21T01:10:40.743Z,5.90
2017-10-21T01:13:09.828Z,5.77
2017-10-21T01:15:38.148Z,5.40
2017-10-21T01:18:06.459Z,4.13
2017-10-21T01:20:34.810Z,4.40
2017-10-21T01:23:03.117Z,4.30
2017-10-21T01:25:31.424Z,5.03
2017-10-21T01:27:59.815Z,5.53
2017-10-21T01:30:28.132Z,5.40
2017-10-21T01:32:56.457Z,4.60
2017-10-21T01:35:24.849Z,4.90
2017-10-21T01:37:53.137Z,5.13
2017-10-21T01:40:21.452Z,4.80
2017-10-21T01:42:49.880Z,3.60
2017-10-21T01:45:18.155Z,5.70
2017-10-21T01:47:47.243Z,5.63
2017-10-21T01:50:16.307Z,6.30
2017-10-21T01:52:45.444Z,5.90
2017-10-21T01:55:13.757Z,6.70
2017-10-21T01:57:42.056Z,5.30
2017-10-21T02:00:10.388Z,5.43
2017-10-21T02:02:38.682Z,5.10
2017-10-21T02:05:07.002Z,5.00
2017-10-21T02:07:35.302Z,6.80
2017-10-21T02:10:03.655Z,3.93
2017-10-21T02:12:31.960Z,4.30
2017-10-21T02:15:01.026Z,3.70
2017-10-21T02:17:30.110Z,4.50
2017-10-21T02:19:58.419Z,4.77
2017-10-21T02:22:27.482Z,5.53
2017-10-21T02:24:55.799Z,4.90
2017-10-21T02:27:24.093Z,4.90
2017-10-21T02:29:52.406Z,4.80
2017-10-21T02:32:20.722Z,5.13
2017-10-21T02:34:49.768Z,4.30
2017-10-21T02:37:18.085Z,5.97
2017-10-21T02:39:47.156Z,5.20
2017-10-21T02:42:15.459Z,6.40
2017-10-21T02:44:44.552Z,5.47
2017-10-21T02:47:12.891Z,6.13
2017-10-21T02:49:41.178Z,7.10
2017-10-21T02:52:10.286Z,5.50
2017-10-21T02:54:39.364Z,4.93
2017-10-21T02:57:07.676Z,5.20
2017-10-21T02:59:36.730Z,4.33
2017-10-21T03:02:05.073Z,6.10
2017-10-21T03:04:33.372Z,5.03
2017-10-21T03:07:01.663Z,5.00
2017-10-21T03:09:29.975Z,5.17
2017-10-21T03:11:59.033Z,5.40
2017-10-21T03:14:27.343Z,4.67
2017-10-21T03:16:56.400Z,3.87
2017-10-21T03:19:24.707Z,4.70
2017-10-21T03:21:53.766Z,3.73
2017-10-21T03:24:22.889Z,4.10
2017-10-21T03:26:51.179Z,4.73
2017-10-21T03:29:20.258Z,5.70
2017-10-21T03:31:48.548Z,5.03
2017-10-21T03:34:17.640Z,5.93
2017-10-21T03:36:46.696Z,5.20
2017-10-21T03:39:15.038Z,4.73
2017-10-21T03:41:43.324Z,5.57
2017-10-21T03:44:11.606Z,4.50
2017-10-21T03:46:39.951Z,3.60
2017-10-21T03:49:09.004Z,4.73
2017-10-21T03:51:37.316Z,5.37
2017-10-21T03:54:06.369Z,4.03
2017-10-21T03:56:34.683Z,4.00
2017-10-21T03:59:02.985Z,4.50
2017-10-21T04:01:31.287Z,4.63
2017-10-21T04:03:59.583Z,4.93
2017-10-21T04:06:27.898Z,6.13
2017-10-21T04:08:56.944Z,3.83
2017-10-21T04:11:25.284Z,4.60
2017-10-21T04:13:53.596Z,5.80
2017-10-21T04:16:22.694Z,6.10
2017-10-21T04:18:51.198Z,5.70
2017-10-21T04:21:19.591Z,7.03
2017-10-21T04:23:47.899Z,4.13
2017-10-21T04:26:16.194Z,5.47
2017-10-21T04:28:44.537Z,3.83
2017-10-21T04:31:13.583Z,5.57
2017-10-21T04:33:41.907Z,6.60
2017-10-21T04:36:10.203Z,5.53
2017-10-21T04:38:38.512Z,4.40
2017-10-21T04:41:06.807Z,5.00
2017-10-21T04:43:35.863Z,3.67
2017-10-21T04:46:04.183Z,4.80
2017-10-21T04:48:33.235Z,4.53
2017-10-21T04:51:01.553Z,5.30
2017-10-21T04:53:29.838Z,5.53
2017-10-21T04:55:58.910Z,5.90
2017-10-21T04:58:27.221Z,5.77
2017-10-21T05:00:56.330Z,5.63
2017-10-21T05:03:24.602Z,6.00
2017-10-21T05:05:52.918Z,5.43
2017-10-21T05:08:21.264Z,4.53
2017-10-21T05:10:49.554Z,6.63
2017-10-21T05:13:17.881Z,4.40
2017-10-21T05:15:46.206Z,5.73
2017-10-21T05:18:14.538Z,4.20
2017-10-21T05:20:43.587Z,5.00
2017-10-21T05:23:12.678Z,4.47
2017-10-21T05:25:40.967Z,4.60
2017-10-21T05:28:10.096Z,4.10
2017-10-21T05:30:39.151Z,3.60
2017-10-21T05:33:07.468Z,4.60
2017-10-21T05:35:36.563Z,4.73
2017-10-21T05:38:05.627Z,3.43
2017-10-21T05:40:33.942Z,4.77
2017-10-21T05:43:03.061Z,4.40
2017-10-21T05:45:31.369Z,5.77
2017-10-21T05:47:59.634Z,4.17
2017-10-21T05:50:27.966Z,4.93
2017-10-21T05:52:56.280Z,5.90
2017-10-21T05:55:24.559Z,5.17
2017-10-21T05:57:52.890Z,6.57
2017-10-21T06:00:21.191Z,6.40
2017-10-21T06:02:49.527Z,5.57
2017-10-21T06:05:18.595Z,6.30
2017-10-21T06:07:47.704Z,4.00
2017-10-21T06:10:16.005Z,5.93
2017-10-21T06:12:44.339Z,5.17
2017-10-21T06:15:12.639Z,4.90
2017-10-21T06:17:41.727Z,5.70
2017-10-21T06:20:10.039Z,4.93
2017-10-21T06:22:38.359Z,4.40
2017-10-21T06:25:06.643Z,4.57
2017-10-21T06:27:37.888Z,5.13
2017-10-21T06:30:06.202Z,4.33
2017-10-21T06:32:34.523Z,5.50
2017-10-21T06:35:02.843Z,5.90
2017-10-21T06:37:31.182Z,5.03
2017-10-21T06:39:59.504Z,5.20
2017-10-21T06:42:28.575Z,4.20
2017-10-21T06:44:56.893Z,3.80
2017-10-21T06:47:25.934Z,6.30
2017-10-21T06:49:54.263Z,4.30
2017-10-21T06:52:22.586Z,4.67
2017-10-21T06:54:51.699Z,4.70
2017-10-21T06:57:20.102Z,5.63
2017-10-21T06:59:49.189Z,5.53
2017-10-21T07:02:18.256Z,5.63
2017-10-21T07:04:46.547Z,4.60
2017-10-21T07:07:14.863Z,6.47
2017-10-21T07:09:43.172Z,3.87
2017-10-21T07:12:11.497Z,4.40
2017-10-21T07:14:40.552Z,4.00
2017-10-21T07:17:08.855Z,4.57
2017-10-21T07:19:37.177Z,3.90
2017-10-21T07:22:05.504Z,3.97
2017-10-21T07:24:34.588Z,3.90
2017-10-21T07:27:02.911Z,3.07
2017-10-21T07:29:31.211Z,5.10
2017-10-21T07:31:59.565Z,4.37
2017-10-21T07:34:28.633Z,3.73
2017-10-21T07:36:57.125Z,4.00
2017-10-21T07:39:26.172Z,5.30
2017-10-21T07:41:54.482Z,4.57
2017-10-21T07:44:23.647Z,4.80
2017-10-21T07:46:51.919Z,4.27
2017-10-21T07:49:20.229Z,3.80
2017-10-21T07:51:49.333Z,3.87
2017-10-21T07:54:18.438Z,5.60
2017-10-21T07:56:46.732Z,5.07
2017-10-21T07:59:15.081Z,5.23
2017-10-21T08:01:44.132Z,6.13
2017-10-21T08:04:12.607Z,5.03
2017-10-21T08:06:40.937Z,5.60
2017-10-21T08:09:09.311Z,5.30
2017-10-21T08:11:38.397Z,5.50
2017-10-21T08:14:07.452Z,4.90
2017-10-21T08:16:35.828Z,6.20
2017-10-21T08:19:04.108Z,6.10
2017-10-21T08:21:32.419Z,6.70
2017-10-21T08:24:01.474Z,6.17
2017-10-21T08:26:29.843Z,7.60
2017-10-21T08:28:58.163Z,7.37
2017-10-21T08:31:26.456Z,4.73
2017-10-21T08:33:54.758Z,5.50
2017-10-21T08:36:23.060Z,5.00
2017-10-21T08:38:51.384Z,5.33
2017-10-21T08:41:19.685Z,6.10
2017-10-21T08:43:47.992Z,6.70
2017-10-21T08:46:16.307Z,5.40
2017-10-21T08:48:45.398Z,4.27
2017-10-21T08:51:14.468Z,4.87
2017-10-21T08:53:42.802Z,4.87
2017-10-21T08:56:11.099Z,5.00
2017-10-21T08:58:39.467Z,6.10
2017-10-21T09:01:07.788Z,4.63
2017-10-21T09:03:36.123Z,5.60
2017-10-21T09:06:04.665Z,5.30
2017-10-21T09:08:32.929Z,6.13
2017-10-21T09:11:02.216Z,4.70
2017-10-21T09:13:30.538Z,5.80
2017-10-21T09:15:58.867Z,4.17
2017-10-21T09:18:27.169Z,5.20
2017-10-21T09:20:55.472Z,7.40
2017-10-21T09:23:23.799Z,5.90
2017-10-21T09:25:52.097Z,5.60
2017-10-21T09:28:21.272Z,6.33
2017-10-21T09:30:49.547Z,4.70
2017-10-21T09:33:17.914Z,5.73
2017-10-21T09:35:46.211Z,4.90
2017-10-21T09:38:14.580Z,5.10
2017-10-21T09:40:42.891Z,7.63
2017-10-21T09:43:11.258Z,4.73
2017-10-21T09:45:40.302Z,7.23
2017-10-21T09:48:08.679Z,7.53
2017-10-21T09:50:36.970Z,9.17
2017-10-21T09:53:06.045Z,7.57
2017-10-21T09:55:34.379Z,6.97
2017-10-21T09:58:03.440Z,6.77
2017-10-21T10:00:31.763Z,7.90
2017-10-21T10:03:00.820Z,5.73
2017-10-21T10:05:29.134Z,5.20
2017-10-21T10:07:57.450Z,7.90
2017-10-21T10:10:25.773Z,7.30
2017-10-21T10:12:54.830Z,6.23
2017-10-21T10:15:23.127Z,6.47
2017-10-21T10:17:51.480Z,6.67
2017-10-21T10:20:19.787Z,7.90
2017-10-21T10:22:48.158Z,6.40
2017-10-21T10:25:16.450Z,7.77
2017-10-21T10:27:45.531Z,5.30
2017-10-21T10:30:14.603Z,5.07
2017-10-21T10:32:42.927Z,7.07
2017-10-21T10:35:11.233Z,6.30
2017-10-21T10:37:39.583Z,6.70
2017-10-21T10:40:07.895Z,7.07
2017-10-21T10:42:36.212Z,6.97
2017-10-21T10:45:04.543Z,5.73
2017-10-21T10:47:32.839Z,6.60
2017-10-21T10:50:01.216Z,8.43
2017-10-21T10:52:29.568Z,6.50
2017-10-21T10:54:57.871Z,6.10
2017-10-21T10:57:26.239Z,7.00
2017-10-21T10:59:54.562Z,5.87
2017-10-21T11:02:22.859Z,8.03
2017-10-21T11:04:51.213Z,7.93
2017-10-21T11:07:20.270Z,9.37
2017-10-21T11:09:48.584Z,7.33
2017-10-21T11:12:17.664Z,7.93
2017-10-21T11:14:45.971Z,7.67
2017-10-21T11:17:14.291Z,8.70
2017-10-21T11:19:42.602Z,9.13
2017-10-21T11:22:11.682Z,6.80
2017-10-21T11:24:40.082Z,8.73
2017-10-21T11:27:09.944Z,7.63
2017-10-21T11:29:38.238Z,7.90
2017-10-21T11:32:06.550Z,7.70
2017-10-21T11:34:35.737Z,9.17
2017-10-21T11:37:04.088Z,7.63
2017-10-21T11:39:32.439Z,10.13
2017-10-21T11:42:00.778Z,9.07
2017-10-21T11:44:29.835Z,9.97
2017-10-21T11:46:58.119Z,8.00
2017-10-21T11:49:26.525Z,9.73
2017-10-21T11:51:55.574Z,9.07
2017-10-21T11:54:23.891Z,7.67
2017-10-21T11:56:52.946Z,6.80
2017-10-21T11:59:21.270Z,8.33
2017-10-21T12:01:50.328Z,5.23
2017-10-21T12:04:18.666Z,8.33
2017-10-21T12:06:46.991Z,6.53
2017-10-21T12:09:16.084Z,8.43
2017-10-21T12:11:44.408Z,7.90
2017-10-21T12:14:12.711Z,6.50
2017-10-21T12:16:41.007Z,7.50
2017-10-21T12:19:09.321Z,6.90
2017-10-21T12:21:38.405Z,8.73
2017-10-21T12:24:07.479Z,7.93
2017-10-21T12:26:35.795Z,7.57
2017-10-21T12:29:04.679Z,9.40
2017-10-21T12:31:33.766Z,8.13
2017-10-21T12:34:02.823Z,7.20
2017-10-21T12:36:31.915Z,8.50
2017-10-21T12:39:00.247Z,8.50
2017-10-21T12:41:29.339Z,7.07
2017-10-21T12:43:57.663Z,8.20
2017-10-21T12:46:26.432Z,10.70
2017-10-21T12:48:55.579Z,8.80
2017-10-21T12:51:24.645Z,10.30
2017-10-21T12:53:52.991Z,11.20
2017-10-21T12:56:21.287Z,8.57
2017-10-21T12:58:49.612Z,9.47
2017-10-21T13:01:18.675Z,7.60
2017-10-21T13:03:46.991Z,8.13
2017-10-21T13:06:16.070Z,8.00
2017-10-21T13:08:44.359Z,9.97
2017-10-21T13:11:12.683Z,8.87
2017-10-21T13:13:40.976Z,9.60
2017-10-21T13:16:09.329Z,10.70
2017-10-21T13:18:37.658Z,8.60
2017-10-21T13:21:05.981Z,6.67
2017-10-21T13:23:34.339Z,8.73
2017-10-21T13:26:02.687Z,7.20
2017-10-21T13:28:31.767Z,8.63
2017-10-21T13:31:00.065Z,8.33
2017-10-21T13:33:28.399Z,11.07
2017-10-21T13:35:57.493Z,9.60
2017-10-21T13:38:25.818Z,8.93
2017-10-21T13:40:54.866Z,8.80
2017-10-21T13:43:23.172Z,10.03
2017-10-21T13:45:52.255Z,8.13
2017-10-21T13:48:21.369Z,8.87
2017-10-21T13:50:49.677Z,9.17
2017-10-21T13:53:17.966Z,11.50
2017-10-21T13:55:46.310Z,10.33
2017-10-21T13:58:14.622Z,12.10
2017-10-21T14:00:42.948Z,14.63
2017-10-21T14:03:11.275Z,11.83
2017-10-21T14:05:39.591Z,11.10
2017-10-21T14:08:08.682Z,9.17
2017-10-21T14:10:37.756Z,12.33
2017-10-21T14:13:06.081Z,10.77
2017-10-21T14:15:34.387Z,12.40
2017-10-21T14:18:02.731Z,9.67
2017-10-21T14:20:31.042Z,12.37
2017-10-21T14:22:59.423Z,10.30
2017-10-21T14:25:27.727Z,10.20
2017-10-21T14:27:56.039Z,10.00
2017-10-21T14:30:24.669Z,12.27
2017-10-21T14:32:52.973Z,9.60
2017-10-21T14:35:21.290Z,10.70
2017-10-21T14:37:50.345Z,9.70
2017-10-21T14:40:18.688Z,17.37
2017-10-21T14:42:46.991Z,15.13
2017-10-21T14:45:16.067Z,10.70
2017-10-21T14:47:45.186Z,9.40
2017-10-21T14:50:14.264Z,13.30
2017-10-21T14:52:43.372Z,11.40
2017-10-21T14:55:11.664Z,12.80
2017-10-21T14:57:40.743Z,21.40
2017-10-21T15:00:09.032Z,25.97
2017-10-21T15:02:38.127Z,11.53
2017-10-21T15:05:06.447Z,9.80
2017-10-21T15:07:34.766Z,11.17
2017-10-21T15:10:03.379Z,10.77
2017-10-21T15:12:31.735Z,11.40
2017-10-21T15:15:00.803Z,10.23
2017-10-21T15:17:29.123Z,9.47
2017-10-21T15:19:57.475Z,9.30
2017-10-21T15:22:25.784Z,10.60
2017-10-21T15:24:54.111Z,10.40
2017-10-21T15:27:22.519Z,12.50
2017-10-21T15:29:51.716Z,11.40
2017-10-21T15:32:20.793Z,11.20
2017-10-21T15:34:49.183Z,10.03
2017-10-21T15:37:17.518Z,10.50
2017-10-21T15:39:45.834Z,12.50
2017-10-21T15:42:15.050Z,11.47
2017-10-21T15:44:43.369Z,10.07
2017-10-21T15:47:11.695Z,9.67
2017-10-21T15:49:40.090Z,8.77
2017-10-21T15:52:09.149Z,9.93
2017-10-21T15:54:37.460Z,9.23
2017-10-21T15:57:06.552Z,11.85
2017-10-21T15:59:34.858Z,10.60
2017-10-21T16:02:03.163Z,10.13
2017-10-21T16:04:32.021Z,10.30
2017-10-21T16:07:00.371Z,8.80
2017-10-21T16:09:29.424Z,9.30
2017-10-21T16:11:57.747Z,9.33
2017-10-21T16:14:27.998Z,11.90
2017-10-21T16:16:56.346Z,10.13
2017-10-21T16:19:24.663Z,10.27
2017-10-21T16:21:52.983Z,9.30
2017-10-21T16:24:21.327Z,8.87
2017-10-21T16:26:49.616Z,7.20
2017-10-21T16:29:17.924Z,9.00
2017-10-21T16:31:47.013Z,8.43
2017-10-21T16:34:15.369Z,10.00
2017-10-21T16:36:43.695Z,9.60
2017-10-21T16:39:12.011Z,9.90
2017-10-21T16:41:40.312Z,9.37
2017-10-21T16:44:09.371Z,8.80
2017-10-21T16:46:37.788Z,10.87
2017-10-21T16:49:06.173Z,9.77
2017-10-21T16:51:34.519Z,10.93
2017-10-21T16:54:02.824Z,9.70
2017-10-21T16:56:31.928Z,10.67
2017-10-21T16:59:00.243Z,10.30
2017-10-21T17:01:28.565Z,11.73
2017-10-21T17:03:57.650Z,9.67
2017-10-21T17:06:25.939Z,9.53
2017-10-21T17:08:55.020Z,7.53
2017-10-21T17:11:24.187Z,9.53
2017-10-21T17:13:52.506Z,8.20
2017-10-21T17:16:21.578Z,8.77
2017-10-21T17:18:49.920Z,8.20
2017-10-21T17:21:18.243Z,8.57
2017-10-21T17:23:46.564Z,8.10
2017-10-21T17:26:14.888Z,8.73
2017-10-21T17:28:43.185Z,8.23
2017-10-21T17:31:11.536Z,9.10
2017-10-21T17:33:39.839Z,9.63
2017-10-21T17:36:08.930Z,9.93
2017-10-21T17:38:37.999Z,9.60
2017-10-21T17:41:06.605Z,10.43
2017-10-21T17:43:35.688Z,10.23
2017-10-21T17:46:04.030Z,10.90
2017-10-21T17:48:32.362Z,10.00
2017-10-21T17:51:01.460Z,8.40
2017-10-21T17:53:30.547Z,8.47
2017-10-21T17:55:58.855Z,8.17
2017-10-21T17:58:27.135Z,8.07
2017-10-21T18:00:55.563Z,8.47
2017-10-21T18:03:23.900Z,10.07
2017-10-21T18:05:52.194Z,8.17
2017-10-21T18:08:21.353Z,8.20
2017-10-21T18:10:49.698Z,7.97
2017-10-21T18:13:18.808Z,9.90
2017-10-21T18:15:47.873Z,11.77
2017-10-21T18:18:17.055Z,11.23
2017-10-21T18:20:46.210Z,10.57
2017-10-21T18:23:14.516Z,9.33
2017-10-21T18:25:42.845Z,9.83
2017-10-21T18:28:11.177Z,10.80
2017-10-21T18:30:39.499Z,11.13
2017-10-21T18:33:07.830Z,10.33
2017-10-21T18:35:36.147Z,10.50
2017-10-21T18:38:04.487Z,9.67
2017-10-21T18:40:34.348Z,10.77
2017-10-21T18:43:03.499Z,9.27
2017-10-21T18:45:31.815Z,10.60
2017-10-21T18:48:00.606Z,11.77
2017-10-21T18:50:29.270Z,11.40
2017-10-21T18:52:58.478Z,11.17
2017-10-21T18:55:27.549Z,11.03
2017-10-21T18:57:55.951Z,12.97
2017-10-21T19:00:24.241Z,13.13
2017-10-21T19:02:52.688Z,12.77
2017-10-21T19:05:21.031Z,10.20
2017-10-21T19:07:49.462Z,12.70
2017-10-21T19:10:18.543Z,11.17
2017-10-21T19:12:47.640Z,11.73
2017-10-21T19:15:15.976Z,10.47
2017-10-21T19:17:44.291Z,12.80
2017-10-21T19:20:12.667Z,13.50
2017-10-21T19:22:40.982Z,13.83
2017-10-21T19:25:09.448Z,14.60
2017-10-21T19:27:37.774Z,12.97
2017-10-21T19:30:06.131Z,15.27
2017-10-21T19:32:34.427Z,13.13
2017-10-21T19:35:02.740Z,12.40
2017-10-21T19:37:32.026Z,12.70
2017-10-21T19:40:01.126Z,13.33
2017-10-21T19:42:30.230Z,14.70
2017-10-21T19:44:59.314Z,16.87
2017-10-21T19:47:27.674Z,13.90
2017-10-21T19:49:56.007Z,14.30
2017-10-21T19:52:24.317Z,14.23
2017-10-21T19:54:52.652Z,12.20
2017-10-21T19:57:21.724Z,12.30
2017-10-21T19:59:50.818Z,11.87
2017-10-21T20:02:19.910Z,14.13
2017-10-21T20:04:48.254Z,15.10
2017-10-21T20:07:16.584Z,12.27
2017-10-21T20:09:45.695Z,13.17
2017-10-21T20:12:14.790Z,12.43
2017-10-21T20:14:43.151Z,12.93
2017-10-21T20:17:12.207Z,14.20
2017-10-21T20:19:40.571Z,14.33
2017-10-21T20:22:08.874Z,14.20
2017-10-21T20:24:37.206Z,16.43
2017-10-21T20:27:05.499Z,13.90
2017-10-21T20:29:33.805Z,14.70
2017-10-21T20:32:02.138Z,14.80
2017-10-21T20:34:30.444Z,13.90
2017-10-21T20:36:58.764Z,13.90
2017-10-21T20:39:27.067Z,15.00
2017-10-21T20:41:55.424Z,16.40
2017-10-21T20:44:24.498Z,17.90
2017-10-21T20:46:52.844Z,16.07
2017-10-21T20:49:21.134Z,17.43
2017-10-21T20:51:49.487Z,16.37
2017-10-21T20:54:17.804Z,13.53
2017-10-21T20:56:46.099Z,14.17
2017-10-21T20:59:14.440Z,14.07
2017-10-21T21:01:42.753Z,15.23
2017-10-21T21:04:11.159Z,15.43
2017-10-21T21:06:39.583Z,14.43
2017-10-21T21:09:07.911Z,16.90
2017-10-21T21:11:36.210Z,17.97
2017-10-21T21:14:04.589Z,14.10
2017-10-21T21:16:32.910Z,15.37
2017-10-21T21:19:01.285Z,14.70
2017-10-21T21:21:29.610Z,14.27
2017-10-21T21:23:57.936Z,16.80
2017-10-21T21:26:27.038Z,16.10
2017-10-21T21:28:56.106Z,15.97
2017-10-21T21:31:24.431Z,15.27
2017-10-21T21:33:52.735Z,16.40
2017-10-21T21:36:21.086Z,24.07
2017-10-21T21:38:49.391Z,20.57
2017-10-21T21:41:18.573Z,18.37
2017-10-21T21:43:46.950Z,16.43
2017-10-21T21:46:15.590Z,15.20
2017-10-21T21:48:43.971Z,13.43
2017-10-21T21:51:12.329Z,14.27
2017-10-21T21:53:40.654Z,14.47
2017-10-21T21:56:08.968Z,14.90
2017-10-21T21:58:37.331Z,15.60
2017-10-21T22:01:05.640Z,14.20
2017-10-21T22:03:33.971Z,14.47
2017-10-21T22:06:02.300Z,15.30
2017-10-21T22:08:30.666Z,12.53
2017-10-21T22:10:59.008Z,14.13
2017-10-21T22:13:27.307Z,12.77
2017-10-21T22:15:55.654Z,12.63
2017-10-21T22:18:23.982Z,11.20
2017-10-21T22:20:52.331Z,11.80
2017-10-21T22:23:20.642Z,10.93
2017-10-21T22:25:49.737Z,11.53
2017-10-21T22:28:18.062Z,11.87
2017-10-21T22:30:46.434Z,11.23
2017-10-21T22:33:14.747Z,11.63
2017-10-21T22:35:43.045Z,12.50
2017-10-21T22:38:12.141Z,12.27
2017-10-21T22:40:40.480Z,12.97
2017-10-21T22:43:08.821Z,12.07
2017-10-21T22:45:37.186Z,12.40
2017-10-21T22:48:05.903Z,10.67
2017-10-21T22:50:34.251Z,12.40
2017-10-21T22:53:02.640Z,12.93
2017-10-21T22:55:30.944Z,13.53
2017-10-21T22:57:59.251Z,13.43
2017-10-21T23:00:27.561Z,15.10
2017-10-21T23:02:55.846Z,10.60
2017-10-21T23:05:24.206Z,15.00
2017-10-21T23:07:53.258Z,12.50
2017-10-21T23:10:22.362Z,13.97
2017-10-21T23:12:50.674Z,13.00
2017-10-21T23:15:19.862Z,13.57
2017-10-21T23:17:48.187Z,12.60
2017-10-21T23:20:16.521Z,9.33
2017-10-21T23:22:45.845Z,9.67
2017-10-21T23:25:14.170Z,9.00
2017-10-21T23:27:42.563Z,9.00
2017-10-21T23:30:10.883Z,10.93
2017-10-21T23:32:39.170Z,8.30
2017-10-21T23:35:07.517Z,8.30
2017-10-21T23:37:36.707Z,9.93
2017-10-21T23:40:05.764Z,10.57
2017-10-21T23:42:34.084Z,7.33
2017-10-21T23:45:02.391Z,8.07
2017-10-21T23:47:30.722Z,5.57
2017-10-21T23:49:59.036Z,6.37
2017-10-21T23:52:27.377Z,6.30
2017-10-21T23:54:55.684Z,4.90
2017-10-21T23:57:24.003Z,6.90
2017-10-21T23:59:52.302Z,7.17
